createdAt,value
2019-03-19T00:02:17.556Z,18.46
2019-03-19T00:04:45.902Z,18.65
2019-03-19T00:07:14.150Z,18.81
2019-03-19T00:09:42.429Z,19.94
2019-03-19T00:12:10.707Z,19.27
2019-03-19T00:14:39.079Z,18.39
2019-03-19T00:17:07.369Z,18.32
2019-03-19T00:19:35.640Z,20.27
2019-03-19T00:22:04.019Z,18.72
2019-03-19T00:24:32.306Z,19.16
2019-03-19T00:27:00.564Z,21.27
2019-03-19T00:29:28.862Z,19.98
2019-03-19T00:31:57.126Z,18.96
2019-03-19T00:34:26.260Z,19.22
2019-03-19T00:36:54.538Z,18.92
2019-03-19T00:39:22.847Z,18.90
2019-03-19T00:41:51.125Z,19.22
2019-03-19T00:44:19.459Z,20.97
2019-03-19T00:46:47.816Z,20.21
2019-03-19T00:49:16.070Z,19.70
2019-03-19T00:51:44.348Z,20.42
2019-03-19T00:54:12.615Z,21.22
2019-03-19T00:56:40.900Z,21.96
2019-03-19T00:59:09.171Z,21.94
2019-03-19T01:01:38.802Z,19.46
2019-03-19T01:04:07.279Z,20.01
2019-03-19T01:06:35.544Z,19.59
2019-03-19T01:09:05.772Z,21.34
2019-03-19T01:11:34.031Z,22.27
2019-03-19T01:14:02.318Z,21.18
2019-03-19T01:16:30.604Z,21.65
2019-03-19T01:18:58.867Z,20.80
2019-03-19T01:21:27.126Z,19.62
2019-03-19T01:23:55.422Z,20.24
2019-03-19T01:26:23.660Z,20.34
2019-03-19T01:28:51.942Z,20.88
2019-03-19T01:31:20.206Z,21.33
2019-03-19T01:33:48.451Z,21.96
2019-03-19T01:36:16.714Z,19.77
2019-03-19T01:38:44.973Z,20.20
2019-03-19T01:41:13.259Z,20.78
2019-03-19T01:43:41.517Z,22.05
2019-03-19T01:46:09.797Z,22.21
2019-03-19T01:48:38.071Z,21.55
2019-03-19T01:51:06.358Z,22.16
2019-03-19T01:53:34.611Z,23.00
2019-03-19T01:56:05.363Z,22.01
2019-03-19T01:58:32.857Z,21.74
2019-03-19T02:01:01.136Z,19.96
2019-03-19T02:03:29.402Z,21.77
2019-03-19T02:05:57.673Z,22.90
2019-03-19T02:08:25.961Z,22.88
2019-03-19T02:10:54.346Z,22.49
2019-03-19T02:13:22.591Z,22.04
2019-03-19T02:15:50.898Z,22.61
2019-03-19T02:18:19.169Z,22.10
2019-03-19T02:20:47.433Z,22.39
2019-03-19T02:23:15.680Z,22.17
2019-03-19T02:25:44.045Z,22.61
2019-03-19T02:28:12.357Z,22.56
2019-03-19T02:30:40.610Z,22.13
2019-03-19T02:33:09.648Z,21.95
2019-03-19T02:35:37.894Z,22.14
2019-03-19T02:38:06.154Z,21.65
2019-03-19T02:40:34.467Z,22.33
2019-03-19T02:43:02.792Z,22.44
2019-03-19T02:45:31.066Z,21.29
2019-03-19T02:47:59.341Z,21.47
2019-03-19T02:50:27.582Z,21.39
2019-03-19T02:52:55.838Z,21.95
2019-03-19T02:55:24.129Z,22.89
2019-03-19T02:57:52.452Z,23.21
2019-03-19T03:00:20.737Z,23.11
2019-03-19T03:02:49.015Z,23.59
2019-03-19T03:05:18.794Z,23.43
2019-03-19T03:07:47.629Z,22.21
2019-03-19T03:10:15.996Z,21.95
2019-03-19T03:12:44.448Z,22.37
2019-03-19T03:15:13.952Z,21.52
2019-03-19T03:17:42.422Z,21.97
2019-03-19T03:20:12.581Z,21.29
2019-03-19T03:22:41.585Z,20.98
2019-03-19T03:25:12.335Z,21.58
2019-03-19T03:27:40.627Z,21.15
2019-03-19T03:30:16.671Z,21.65
2019-03-19T03:32:45.066Z,21.52
2019-03-19T03:35:13.395Z,21.56
2019-03-19T03:37:41.649Z,21.65
2019-03-19T03:40:17.600Z,21.29
2019-03-19T03:42:48.007Z,20.25
2019-03-19T03:45:18.473Z,21.78
2019-03-19T03:47:46.896Z,21.36
2019-03-19T03:50:19.277Z,20.91
2019-03-19T03:52:47.597Z,21.55
2019-03-19T03:55:16.628Z,20.77
2019-03-19T03:57:44.982Z,21.02
2019-03-19T04:00:17.679Z,21.60
2019-03-19T04:02:45.997Z,21.82
2019-03-19T04:05:14.325Z,22.36
2019-03-19T04:07:42.645Z,22.30
2019-03-19T04:10:12.629Z,21.16
2019-03-19T04:12:40.908Z,20.86
2019-03-19T04:15:12.173Z,21.86
2019-03-19T04:17:40.448Z,21.41
2019-03-19T04:20:12.795Z,21.93
2019-03-19T04:22:41.318Z,22.13
2019-03-19T04:25:10.871Z,19.94
2019-03-19T04:27:40.735Z,21.48
2019-03-19T04:30:12.401Z,21.39
2019-03-19T04:32:40.684Z,19.75
2019-03-19T04:35:08.954Z,20.27
2019-03-19T04:37:37.225Z,20.06
2019-03-19T04:40:08.639Z,19.89
2019-03-19T04:42:36.939Z,20.90
2019-03-19T04:45:07.143Z,21.08
2019-03-19T04:47:35.431Z,20.55
2019-03-19T04:50:05.841Z,20.63
2019-03-19T04:52:34.104Z,21.61
2019-03-19T04:55:02.399Z,20.77
2019-03-19T04:57:30.660Z,21.20
2019-03-19T04:59:59.150Z,21.44
2019-03-19T05:02:27.371Z,20.83
2019-03-19T05:04:55.650Z,21.07
2019-03-19T05:07:23.932Z,21.42
2019-03-19T05:09:52.196Z,21.74
2019-03-19T05:12:20.441Z,21.59
2019-03-19T05:14:48.704Z,21.52
2019-03-19T05:17:16.984Z,21.72
2019-03-19T05:19:45.257Z,21.60
2019-03-19T05:22:13.540Z,22.23
2019-03-19T05:24:41.815Z,21.77
2019-03-19T05:27:10.075Z,22.06
2019-03-19T05:29:38.379Z,20.92
2019-03-19T05:32:06.644Z,22.19
2019-03-19T05:34:34.920Z,21.38
2019-03-19T05:37:03.165Z,19.54
2019-03-19T05:39:31.458Z,20.08
2019-03-19T05:41:59.734Z,20.73
2019-03-19T05:44:28.029Z,21.15
2019-03-19T05:46:56.275Z,22.33
2019-03-19T05:49:24.520Z,20.98
2019-03-19T05:51:52.799Z,21.32
2019-03-19T05:54:21.038Z,21.28
2019-03-19T05:56:49.307Z,20.74
2019-03-19T05:59:17.564Z,20.28
2019-03-19T06:01:45.833Z,20.01
2019-03-19T06:04:14.099Z,20.93
2019-03-19T06:06:42.374Z,19.99
2019-03-19T06:09:10.665Z,20.07
2019-03-19T06:11:38.909Z,19.95
2019-03-19T06:14:07.158Z,21.28
2019-03-19T06:16:35.456Z,20.90
2019-03-19T06:19:03.701Z,21.39
2019-03-19T06:21:31.959Z,19.09
2019-03-19T06:24:00.252Z,19.17
2019-03-19T06:26:28.538Z,20.69
2019-03-19T06:28:56.797Z,20.65
2019-03-19T06:31:25.074Z,21.11
2019-03-19T06:33:53.370Z,21.25
2019-03-19T06:36:21.616Z,20.99
2019-03-19T06:38:49.899Z,21.26
2019-03-19T06:41:18.224Z,20.80
2019-03-19T06:43:46.498Z,20.22
2019-03-19T06:46:14.790Z,21.22
2019-03-19T06:48:43.052Z,21.20
2019-03-19T06:51:16.920Z,20.45
2019-03-19T06:53:45.774Z,20.85
2019-03-19T06:56:14.959Z,22.09
2019-03-19T06:58:43.305Z,22.08
2019-03-19T07:01:12.664Z,21.64
2019-03-19T07:03:40.962Z,21.91
2019-03-19T07:06:09.247Z,21.87
2019-03-19T07:08:37.522Z,22.19
2019-03-19T07:11:05.785Z,23.08
2019-03-19T07:13:34.057Z,23.23
2019-03-19T07:16:02.341Z,22.83
2019-03-19T07:18:30.608Z,22.42
2019-03-19T07:20:58.855Z,22.54
2019-03-19T07:23:27.136Z,21.24
2019-03-19T07:25:55.419Z,21.79
2019-03-19T07:28:23.692Z,22.18
2019-03-19T07:30:51.962Z,22.22
2019-03-19T07:33:21.961Z,22.56
2019-03-19T07:35:50.314Z,22.62
2019-03-19T07:38:18.580Z,23.26
2019-03-19T07:40:46.863Z,22.52
2019-03-19T07:43:15.112Z,22.62
2019-03-19T07:45:43.388Z,22.90
2019-03-19T07:48:11.664Z,23.23
2019-03-19T07:50:40.314Z,21.77
2019-03-19T07:53:08.582Z,23.43
2019-03-19T07:55:36.852Z,23.58
2019-03-19T07:58:05.113Z,23.83
2019-03-19T08:00:33.405Z,24.10
2019-03-19T08:03:01.701Z,24.09
2019-03-19T08:05:33.330Z,23.32
2019-03-19T08:08:00.018Z,23.60
2019-03-19T08:10:28.274Z,23.96
2019-03-19T08:12:58.974Z,24.39
2019-03-19T08:15:27.251Z,24.61
2019-03-19T08:17:55.509Z,23.78
2019-03-19T08:20:23.761Z,23.82
2019-03-19T08:22:52.086Z,23.86
2019-03-19T08:25:20.363Z,24.05
2019-03-19T08:27:48.644Z,23.87
2019-03-19T08:30:18.955Z,23.91
2019-03-19T08:32:47.229Z,23.96
2019-03-19T08:35:15.554Z,24.16
2019-03-19T08:37:43.907Z,24.57
2019-03-19T08:40:18.702Z,25.32
2019-03-19T08:42:46.969Z,25.40
2019-03-19T08:45:17.728Z,24.59
2019-03-19T08:47:45.983Z,23.74
2019-03-19T08:50:22.298Z,24.88
2019-03-19T08:52:50.574Z,25.22
2019-03-19T08:55:18.838Z,25.46
2019-03-19T08:57:47.825Z,25.19
2019-03-19T09:00:24.539Z,25.93
2019-03-19T09:02:52.832Z,25.70
2019-03-19T09:05:21.116Z,23.71
2019-03-19T09:07:49.458Z,23.39
2019-03-19T09:10:18.769Z,23.35
2019-03-19T09:12:48.381Z,23.72
2019-03-19T09:15:19.305Z,23.96
2019-03-19T09:17:47.571Z,25.48
2019-03-19T09:20:16.760Z,26.45
2019-03-19T09:22:45.113Z,26.39
2019-03-19T09:25:13.372Z,25.97
2019-03-19T09:27:41.627Z,25.30
2019-03-19T09:30:15.759Z,25.23
2019-03-19T09:32:44.010Z,25.51
2019-03-19T09:35:12.352Z,24.77
2019-03-19T09:37:44.412Z,25.50
2019-03-19T09:40:15.522Z,27.05
2019-03-19T09:42:43.770Z,24.59
2019-03-19T09:45:13.283Z,25.89
2019-03-19T09:47:41.543Z,24.27
2019-03-19T09:50:12.741Z,24.09
2019-03-19T09:52:41.062Z,24.68
2019-03-19T09:55:17.161Z,24.27
2019-03-19T09:57:45.432Z,25.32
2019-03-19T10:00:21.719Z,25.39
2019-03-19T10:02:49.997Z,22.65
2019-03-19T10:05:18.365Z,23.37
2019-03-19T10:07:46.788Z,23.68
2019-03-19T10:10:18.969Z,23.00
2019-03-19T10:12:47.274Z,24.54
2019-03-19T10:15:15.679Z,20.82
2019-03-19T10:17:43.937Z,22.92
2019-03-19T10:20:18.428Z,24.76
2019-03-19T10:22:46.798Z,25.19
2019-03-19T10:25:15.988Z,24.12
2019-03-19T10:27:44.263Z,24.91
2019-03-19T10:30:22.618Z,25.93
2019-03-19T10:32:50.975Z,25.59
2019-03-19T10:35:19.315Z,25.04
2019-03-19T10:37:47.587Z,24.85
2019-03-19T10:40:19.969Z,25.02
2019-03-19T10:42:49.269Z,25.14
2019-03-19T10:45:22.665Z,25.44
2019-03-19T10:47:51.096Z,26.36
2019-03-19T10:50:23.695Z,25.89
2019-03-19T10:52:51.978Z,27.18
2019-03-19T10:55:20.306Z,27.25
2019-03-19T10:57:48.570Z,26.92
2019-03-19T11:00:27.402Z,27.18
2019-03-19T11:02:55.683Z,28.65
2019-03-19T11:05:24.664Z,29.00
2019-03-19T11:07:53.087Z,29.10
2019-03-19T11:10:21.689Z,28.64
2019-03-19T11:12:49.962Z,29.32
2019-03-19T11:15:19.273Z,25.96
2019-03-19T11:17:47.610Z,26.13
2019-03-19T11:20:17.329Z,26.59
2019-03-19T11:22:45.743Z,25.87
2019-03-19T11:25:15.993Z,25.91
2019-03-19T11:27:44.596Z,25.97
2019-03-19T11:30:23.500Z,23.64
2019-03-19T11:32:51.825Z,24.79
2019-03-19T11:35:20.263Z,25.06
2019-03-19T11:37:48.606Z,26.89
2019-03-19T11:40:17.905Z,29.65
2019-03-19T11:42:46.778Z,29.29
2019-03-19T11:45:17.003Z,29.44
2019-03-19T11:47:45.360Z,30.23
2019-03-19T11:50:19.298Z,31.24
2019-03-19T11:52:47.573Z,32.34
2019-03-19T11:55:17.026Z,32.45
2019-03-19T11:57:47.865Z,32.27
2019-03-19T12:00:23.828Z,32.90
2019-03-19T12:02:52.192Z,33.44
2019-03-19T12:05:20.475Z,32.46
2019-03-19T12:07:48.753Z,28.80
2019-03-19T12:10:17.058Z,31.05
2019-03-19T12:12:45.352Z,32.36
2019-03-19T12:15:14.010Z,34.18
2019-03-19T12:17:42.274Z,32.44
2019-03-19T12:20:12.394Z,34.87
2019-03-19T12:22:40.749Z,34.21
2019-03-19T12:25:11.307Z,34.72
2019-03-19T12:27:39.586Z,35.89
2019-03-19T12:30:22.509Z,36.27
2019-03-19T12:32:48.285Z,34.96
2019-03-19T12:35:18.109Z,35.94
2019-03-19T12:37:46.377Z,36.85
2019-03-19T12:40:16.997Z,37.23
2019-03-19T12:42:45.351Z,36.84
2019-03-19T12:45:18.306Z,36.72
2019-03-19T12:47:46.708Z,33.10
2019-03-19T12:50:17.898Z,37.39
2019-03-19T12:52:46.272Z,38.09
2019-03-19T12:55:14.653Z,40.60
2019-03-19T12:57:43.005Z,38.44
2019-03-19T13:00:16.200Z,36.51
2019-03-19T13:02:44.497Z,38.85
2019-03-19T13:05:12.771Z,36.89
2019-03-19T13:07:41.066Z,38.13
2019-03-19T13:10:12.425Z,33.30
2019-03-19T13:12:40.717Z,35.08
2019-03-19T13:15:11.478Z,36.05
2019-03-19T13:17:39.918Z,34.68
2019-03-19T13:20:10.836Z,37.66
2019-03-19T13:22:39.884Z,38.28
2019-03-19T13:25:20.243Z,35.30
2019-03-19T13:27:48.499Z,37.69
2019-03-19T13:30:22.678Z,38.80
2019-03-19T13:32:51.049Z,40.08
2019-03-19T13:35:19.346Z,41.57
2019-03-19T13:37:47.601Z,38.32
2019-03-19T13:40:19.528Z,39.10
2019-03-19T13:42:49.974Z,40.57
2019-03-19T13:45:23.134Z,40.42
2019-03-19T13:47:51.423Z,41.73
2019-03-19T13:50:20.325Z,41.26
2019-03-19T13:52:48.727Z,38.13
2019-03-19T13:55:18.269Z,37.37
2019-03-19T13:57:46.533Z,38.58
2019-03-19T14:00:16.626Z,37.77
2019-03-19T14:02:44.963Z,37.60
2019-03-19T14:05:16.754Z,36.38
2019-03-19T14:07:45.067Z,38.69
2019-03-19T14:10:17.000Z,38.90
2019-03-19T14:12:45.348Z,37.70
2019-03-19T14:15:19.412Z,38.33
2019-03-19T14:17:47.740Z,40.41
2019-03-19T14:20:16.827Z,40.72
2019-03-19T14:22:45.885Z,39.92
2019-03-19T14:25:20.595Z,38.74
2019-03-19T14:27:48.886Z,38.97
2019-03-19T14:30:18.690Z,39.97
2019-03-19T14:32:47.043Z,39.97
2019-03-19T14:35:15.857Z,36.46
2019-03-19T14:37:44.193Z,39.01
2019-03-19T14:40:20.424Z,38.60
2019-03-19T14:42:49.259Z,37.79
2019-03-19T14:45:18.362Z,39.96
2019-03-19T14:47:46.777Z,40.75
2019-03-19T14:50:19.724Z,40.57
2019-03-19T14:52:48.006Z,41.63
2019-03-19T14:55:16.309Z,42.58
2019-03-19T14:57:44.557Z,42.37
2019-03-19T15:00:22.534Z,39.50
2019-03-19T15:02:50.888Z,41.88
2019-03-19T15:05:19.434Z,38.28
2019-03-19T15:07:47.783Z,35.99
2019-03-19T15:10:20.672Z,36.17
2019-03-19T15:12:48.966Z,33.26
2019-03-19T15:15:18.371Z,36.37
2019-03-19T15:17:46.731Z,38.33
2019-03-19T15:20:17.889Z,35.57
2019-03-19T15:22:46.254Z,37.12
2019-03-19T15:25:14.484Z,34.29
2019-03-19T15:27:42.742Z,38.22
2019-03-19T15:30:17.947Z,35.85
2019-03-19T15:32:46.289Z,34.15
2019-03-19T15:35:14.681Z,36.81
2019-03-19T15:37:43.254Z,38.98
2019-03-19T15:40:15.533Z,38.41
2019-03-19T15:42:43.851Z,40.22
2019-03-19T15:45:16.452Z,38.66
2019-03-19T15:47:44.711Z,39.88
2019-03-19T15:50:16.371Z,38.46
2019-03-19T15:52:44.649Z,38.46
2019-03-19T15:55:14.281Z,36.92
2019-03-19T15:57:42.659Z,38.95
2019-03-19T16:00:14.024Z,37.10
2019-03-19T16:02:42.369Z,35.64
2019-03-19T16:05:12.073Z,35.34
2019-03-19T16:07:40.449Z,36.88
2019-03-19T16:10:13.484Z,38.66
2019-03-19T16:12:41.770Z,39.03
2019-03-19T16:15:14.965Z,36.70
2019-03-19T16:17:43.302Z,37.83
2019-03-19T16:20:15.776Z,39.50
2019-03-19T16:22:51.382Z,35.97
2019-03-19T16:25:24.435Z,36.94
2019-03-19T16:27:53.012Z,38.04
2019-03-19T16:30:21.352Z,37.57
2019-03-19T16:32:49.644Z,36.25
2019-03-19T16:35:18.109Z,37.08
2019-03-19T16:37:46.405Z,37.58
2019-03-19T16:40:24.061Z,37.37
2019-03-19T16:42:52.385Z,36.98
2019-03-19T16:45:20.711Z,37.56
2019-03-19T16:47:49.027Z,36.06
2019-03-19T16:50:18.349Z,35.67
2019-03-19T16:52:46.774Z,35.26
2019-03-19T16:55:16.470Z,35.64
2019-03-19T16:57:44.761Z,33.47
2019-03-19T17:00:29.983Z,33.96
2019-03-19T17:02:58.273Z,31.85
2019-03-19T17:05:26.539Z,30.39
2019-03-19T17:07:54.825Z,30.30
2019-03-19T17:10:25.440Z,29.68
2019-03-19T17:12:53.796Z,30.04
2019-03-19T17:15:22.144Z,28.93
2019-03-19T17:17:50.502Z,29.35
2019-03-19T17:20:19.515Z,29.87
2019-03-19T17:22:47.860Z,29.98
2019-03-19T17:25:24.181Z,30.01
2019-03-19T17:27:52.464Z,29.55
2019-03-19T17:30:28.314Z,30.14
2019-03-19T17:32:56.583Z,30.10
2019-03-19T17:35:24.912Z,29.09
2019-03-19T17:37:53.238Z,28.25
2019-03-19T17:40:21.527Z,29.29
2019-03-19T17:42:49.929Z,29.11
2019-03-19T17:45:18.205Z,29.18
2019-03-19T17:47:46.598Z,29.25
2019-03-19T17:50:19.866Z,29.38
2019-03-19T17:52:50.486Z,29.19
2019-03-19T17:55:18.738Z,28.94
2019-03-19T17:57:47.007Z,28.60
2019-03-19T18:00:26.942Z,28.49
2019-03-19T18:02:55.244Z,27.72
2019-03-19T18:05:23.669Z,27.57
2019-03-19T18:07:51.909Z,28.42
2019-03-19T18:10:20.242Z,27.98
2019-03-19T18:12:48.526Z,28.21
2019-03-19T18:15:20.207Z,28.79
2019-03-19T18:17:48.478Z,28.59
2019-03-19T18:20:17.586Z,28.48
2019-03-19T18:22:45.923Z,28.84
2019-03-19T18:25:18.645Z,28.77
2019-03-19T18:27:47.142Z,28.98
2019-03-19T18:30:19.519Z,28.73
2019-03-19T18:32:47.857Z,28.20
2019-03-19T18:35:16.175Z,28.22
2019-03-19T18:37:44.439Z,28.15
2019-03-19T18:40:15.222Z,25.53
2019-03-19T18:42:43.548Z,25.65
2019-03-19T18:45:17.007Z,27.08
2019-03-19T18:47:45.538Z,27.13
2019-03-19T18:50:21.277Z,27.85
2019-03-19T18:52:49.551Z,27.40
2019-03-19T18:55:17.912Z,24.80
2019-03-19T18:57:46.281Z,25.99
2019-03-19T19:00:21.512Z,26.58
2019-03-19T19:02:51.057Z,26.27
2019-03-19T19:05:20.850Z,26.60
2019-03-19T19:07:49.123Z,25.55
2019-03-19T19:10:21.422Z,24.58
2019-03-19T19:12:50.088Z,25.26
2019-03-19T19:15:19.645Z,25.39
2019-03-19T19:17:47.897Z,24.66
2019-03-19T19:20:16.959Z,25.87
2019-03-19T19:22:45.245Z,26.49
2019-03-19T19:25:15.539Z,26.72
2019-03-19T19:27:43.809Z,27.08
2019-03-19T19:30:18.124Z,26.18
2019-03-19T19:32:46.406Z,26.57
2019-03-19T19:35:14.703Z,26.29
2019-03-19T19:37:42.951Z,26.47
2019-03-19T19:40:18.856Z,26.45
2019-03-19T19:42:47.213Z,26.09
2019-03-19T19:45:16.219Z,26.40
2019-03-19T19:47:44.681Z,26.20
2019-03-19T19:50:14.982Z,25.98
2019-03-19T19:52:43.263Z,25.10
2019-03-19T19:55:15.329Z,25.92
2019-03-19T19:57:43.960Z,25.70
2019-03-19T20:00:20.373Z,25.18
2019-03-19T20:02:48.989Z,25.78
2019-03-19T20:05:17.338Z,25.74
2019-03-19T20:07:45.699Z,25.45
2019-03-19T20:10:17.180Z,25.45
2019-03-19T20:12:45.532Z,25.45
2019-03-19T20:15:14.009Z,25.43
2019-03-19T20:17:42.607Z,25.46
2019-03-19T20:20:13.599Z,25.07
2019-03-19T20:22:41.882Z,24.95
2019-03-19T20:25:10.310Z,25.44
2019-03-19T20:27:38.615Z,23.58
2019-03-19T20:30:15.460Z,23.32
2019-03-19T20:32:47.437Z,24.67
2019-03-19T20:35:19.111Z,24.44
2019-03-19T20:37:47.404Z,24.10
2019-03-19T20:40:17.290Z,24.37
2019-03-19T20:42:45.776Z,23.37
2019-03-19T20:45:16.436Z,23.74
2019-03-19T20:47:44.698Z,24.27
2019-03-19T20:50:24.988Z,24.80
2019-03-19T20:52:53.279Z,23.95
2019-03-19T20:55:21.538Z,24.00
2019-03-19T20:57:49.903Z,24.80
2019-03-19T21:00:18.647Z,24.28
2019-03-19T21:02:46.969Z,24.95
2019-03-19T21:05:15.245Z,25.12
2019-03-19T21:07:43.593Z,24.80
2019-03-19T21:10:19.627Z,24.92
2019-03-19T21:12:47.888Z,25.05
2019-03-19T21:15:17.693Z,25.15
2019-03-19T21:17:46.839Z,24.56
2019-03-19T21:20:15.110Z,24.79
2019-03-19T21:22:43.417Z,23.33
2019-03-19T21:25:11.685Z,21.74
2019-03-19T21:27:40.085Z,21.91
2019-03-19T21:30:11.521Z,21.49
2019-03-19T21:32:39.945Z,23.85
2019-03-19T21:35:08.838Z,22.32
2019-03-19T21:37:37.119Z,22.31
2019-03-19T21:40:10.879Z,22.39
2019-03-19T21:42:38.934Z,21.88
2019-03-19T21:45:10.138Z,21.30
2019-03-19T21:47:38.414Z,21.62
2019-03-19T21:50:09.854Z,21.66
2019-03-19T21:52:38.127Z,22.17
2019-03-19T21:55:08.059Z,22.00
2019-03-19T21:57:36.338Z,20.93
2019-03-19T22:00:07.771Z,22.95
2019-03-19T22:02:36.060Z,22.64
2019-03-19T22:05:05.465Z,23.73
2019-03-19T22:07:33.725Z,23.78
2019-03-19T22:10:02.009Z,23.16
2019-03-19T22:12:30.303Z,23.90
2019-03-19T22:14:58.577Z,24.13
2019-03-19T22:17:26.891Z,24.18
2019-03-19T22:19:55.245Z,22.90
2019-03-19T22:22:23.528Z,23.87
2019-03-19T22:24:51.791Z,24.12
2019-03-19T22:27:20.077Z,24.24
2019-03-19T22:29:48.345Z,23.13
2019-03-19T22:32:16.628Z,23.11
2019-03-19T22:34:44.941Z,23.79
2019-03-19T22:37:13.206Z,21.59
2019-03-19T22:39:42.739Z,23.21
2019-03-19T22:42:11.123Z,23.45
2019-03-19T22:44:39.392Z,23.13
2019-03-19T22:47:07.705Z,22.85
2019-03-19T22:49:35.986Z,21.64
2019-03-19T22:52:04.246Z,21.57
2019-03-19T22:54:32.544Z,23.24
2019-03-19T22:57:00.818Z,23.58
2019-03-19T22:59:29.071Z,23.14
2019-03-19T23:01:57.361Z,23.25
2019-03-19T23:04:27.417Z,22.42
2019-03-19T23:06:55.619Z,22.76
2019-03-19T23:09:23.893Z,22.85
2019-03-19T23:11:52.185Z,22.63
2019-03-19T23:14:20.434Z,22.88
2019-03-19T23:16:48.783Z,22.51
2019-03-19T23:19:17.126Z,22.61
2019-03-19T23:21:45.325Z,22.68
2019-03-19T23:24:13.597Z,21.67
2019-03-19T23:26:41.863Z,21.62
2019-03-19T23:29:10.145Z,20.87
2019-03-19T23:31:38.482Z,21.62
2019-03-19T23:34:06.746Z,21.24
2019-03-19T23:36:35.059Z,21.45
2019-03-19T23:39:03.870Z,21.08
2019-03-19T23:41:32.127Z,21.19
2019-03-19T23:44:00.392Z,20.97
2019-03-19T23:46:28.662Z,21.65
2019-03-19T23:48:56.939Z,21.52
2019-03-19T23:51:25.215Z,21.24
2019-03-19T23:53:53.488Z,20.15
2019-03-19T23:56:21.787Z,20.81
2019-03-19T23:58:50.147Z,21.59
